Time;durP1;ratioP1;P1;durP2;ratioP2;P2;SDS_P1;SDS_P2;PMS_P1;PMS_P2;Temp;Humidity;BMP_temperature;BMP_pressure;BME280_temperature;BME280_humidity;BME280_pressure;Samples;Min_cycle;Max_cycle;Signal;HPM_P1;HPM_P2
2022/01/10 00:02:37;;;;;;;126.40;45.70;;;;;;;4.44;64.30;99907.34;5077442;28;20381;-80
2022/01/10 00:05:22;;;;;;;63.83;28.63;;;;;;;4.62;62.72;99906.53;5075443;28;20044;-80
2022/01/10 00:08:07;;;;;;;55.38;25.33;;;;;;;4.42;63.00;99915.72;5075655;28;20063;-80
2022/01/10 00:10:52;;;;;;;216.32;64.95;;;;;;;4.42;64.74;99914.94;5078746;28;20047;-80
2022/01/10 00:13:37;;;;;;;176.00;54.42;;;;;;;4.41;64.84;99910.63;5077336;28;20040;-80
2022/01/10 00:16:23;;;;;;;147.30;51.08;;;;;;;4.50;63.54;99917.75;5081051;28;20497;-79
2022/01/10 00:19:08;;;;;;;148.57;49.20;;;;;;;4.54;61.94;99915.25;5077169;28;20044;-79
2022/01/10 00:21:53;;;;;;;76.05;31.45;;;;;;;4.45;61.68;99917.84;5077127;28;20047;-79
2022/01/10 00:24:38;;;;;;;94.18;46.42;;;;;;;4.44;60.71;99918.91;5079986;28;20039;-80
2022/01/10 00:27:23;;;;;;;78.72;30.35;;;;;;;4.69;60.46;99921.19;5077987;28;20082;-80
2022/01/10 00:30:10;;;;;;;35.15;18.23;;;;;;;4.52;60.20;99923.63;5062059;28;20044;-80
2022/01/10 00:32:55;;;;;;;224.48;68.65;;;;;;;4.41;62.09;99921.41;5054175;28;20409;-79
2022/01/10 00:35:40;;;;;;;164.38;55.78;;;;;;;4.60;61.87;99920.28;5058906;28;20040;-80
2022/01/10 00:38:24;;;;;;;135.77;44.10;;;;;;;4.59;62.03;99913.28;5053616;28;20060;-80
2022/01/10 00:41:10;;;;;;;197.88;55.97;;;;;;;4.74;61.98;99909.53;5039023;28;20048;-78
2022/01/10 00:43:55;;;;;;;203.57;58.40;;;;;;;4.82;60.94;99913.44;5058019;28;20037;-79
2022/01/10 00:46:40;;;;;;;142.93;46.63;;;;;;;4.86;59.14;99900.97;5053643;28;20049;-80
2022/01/10 00:49:25;;;;;;;38.97;18.77;;;;;;;4.83;57.96;99902.34;5058688;28;20044;-79
2022/01/10 00:52:10;;;;;;;210.98;57.50;;;;;;;4.74;59.49;99902.25;5062774;28;20055;-80
2022/01/10 00:54:57;;;;;;;159.95;49.05;;;;;;;4.90;59.49;99904.66;5065180;28;20044;-80
2022/01/10 00:57:42;;;;;;;103.22;33.88;;;;;;;4.66;59.21;99907.53;5057979;28;20497;-80
2022/01/10 01:00:27;;;;;;;38.67;17.25;;;;;;;4.82;58.10;99911.56;5071672;28;20044;-78
2022/01/10 01:03:12;;;;;;;46.45;18.00;;;;;;;4.83;57.63;99921.22;5060340;28;20055;-79
2022/01/10 01:05:57;;;;;;;97.38;29.48;;;;;;;4.85;58.47;99916.34;5073746;28;20409;-79
2022/01/10 01:08:43;;;;;;;195.05;52.00;;;;;;;4.79;59.31;99914.81;5064974;28;20051;-78
2022/01/10 01:14:23;;;;;;;44.25;17.42;;;;;;;4.87;56.94;99918.75;5072775;28;20051;-79
2022/01/10 01:17:32;;;;;;;28.98;14.82;;;;;;;4.79;57.51;99922.09;5062328;28;20119;-80
2022/01/10 01:20:41;;;;;;;73.15;24.90;;;;;;;4.66;57.10;99921.78;5059457;28;20063;-79
2022/01/10 01:26:39;;;;;;;200.07;57.08;;;;;;;4.60;59.22;99930.25;5059190;28;20044;-78
2022/01/10 01:29:27;;;;;;;182.70;52.17;;;;;;;4.76;59.88;99928.88;5077270;28;20040;-80
2022/01/10 01:32:12;;;;;;;61.15;24.52;;;;;;;4.86;56.99;99928.72;5060596;28;20062;-80
2022/01/10 01:35:03;;;;;;;218.70;59.00;;;;;;;4.93;57.97;99929.09;5053087;28;20048;-80
2022/01/10 01:37:48;;;;;;;195.75;57.10;;;;;;;4.94;56.81;99922.63;5041308;28;20052;-80
2022/01/10 01:40:33;;;;;;;195.87;55.73;;;;;;;4.91;57.96;99920.53;5056432;28;20048;-79
2022/01/10 01:43:19;;;;;;;272.70;73.25;;;;;;;4.69;58.07;99923.88;5053308;28;20041;-80
2022/01/10 01:46:03;;;;;;;177.10;49.55;;;;;;;4.56;58.05;99921.16;5042668;28;20052;-80
2022/01/10 01:48:50;;;;;;;194.55;52.50;;;;;;;4.56;58.49;99924.66;5052475;28;20417;-80
2022/01/10 01:51:38;;;;;;;229.43;61.33;;;;;;;4.62;58.20;99919.97;5044017;28;20048;-79
2022/01/10 01:54:23;;;;;;;;;;;;;;;4.66;57.69;99921.00;5062871;28;20037;-79
2022/01/10 01:57:08;;;;;;;91.72;26.90;;;;;;;4.70;56.35;99913.91;5060305;28;19913;-80
2022/01/10 01:59:54;;;;;;;144.85;38.33;;;;;;;4.75;56.92;99927.28;5059145;28;20047;-79
2022/01/10 02:02:39;;;;;;;148.75;40.63;;;;;;;4.76;55.89;99920.00;5060851;28;20406;-80
2022/01/10 02:05:24;;;;;;;193.02;55.83;;;;;;;4.79;56.68;99927.50;5064407;28;20044;-79
2022/01/10 02:08:10;;;;;;;203.40;54.42;;;;;;;4.88;57.10;99923.81;5058205;28;20527;-79
2022/01/10 02:10:55;;;;;;;213.10;56.97;;;;;;;4.89;57.50;99924.63;5077294;28;20044;-79
2022/01/10 02:13:42;;;;;;;247.95;65.82;;;;;;;4.87;57.91;99924.94;5059580;28;20041;-80
2022/01/10 02:16:44;;;;;;;234.20;62.70;;;;;;;4.97;57.26;99926.63;5056371;28;20044;-79
2022/01/10 02:19:55;;;;;;;247.20;58.88;;;;;;;4.99;57.47;99921.72;5060063;28;20528;-80
2022/01/10 02:22:40;;;;;;;162.93;50.60;;;;;;;4.85;57.16;99919.03;5057901;28;20531;-78
2022/01/10 02:25:45;;;;;;;236.70;60.67;;;;;;;5.03;57.85;99915.44;5071824;28;20432;-80
2022/01/10 02:28:32;;;;;;;134.90;39.38;;;;;;;5.05;56.81;99920.56;5057343;28;20045;-79
2022/01/10 02:31:16;;;;;;;135.27;40.38;;;;;;;4.95;56.78;99915.34;5072842;28;20060;-80
2022/01/10 02:34:01;;;;;;;109.88;34.05;;;;;;;4.86;57.25;99911.75;5047616;28;20048;-80
2022/01/10 02:36:46;;;;;;;73.47;23.40;;;;;;;4.87;56.57;99910.66;5038753;28;20048;-79
2022/01/10 02:39:31;;;;;;;80.13;24.80;;;;;;;4.69;57.11;99907.72;5037871;28;20052;-80
2022/01/10 02:42:16;;;;;;;115.38;31.55;;;;;;;4.72;57.64;99899.03;5041321;28;20048;-80
2022/01/10 02:45:01;;;;;;;119.32;32.90;;;;;;;4.84;57.88;99903.16;5069248;28;20044;-78
2022/01/10 02:47:47;;;;;;;100.35;25.83;;;;;;;4.84;57.00;99900.47;5057438;28;20044;-80
2022/01/10 02:50:32;;;;;;;103.85;30.75;;;;;;;4.84;56.89;99901.25;5076816;28;20044;-80
2022/01/10 02:53:17;;;;;;;93.63;26.55;;;;;;;4.81;57.19;99904.56;5059231;28;20501;-80
2022/01/10 02:56:03;;;;;;;122.30;35.55;;;;;;;4.95;58.23;99902.69;5073513;28;20051;-80
2022/01/10 02:58:48;;;;;;;56.83;18.00;;;;;;;4.95;56.69;99899.19;5061784;28;20497;-79
2022/01/10 03:01:32;;;;;;;80.50;23.27;;;;;;;5.00;57.38;99904.47;5073673;28;20052;-80
2022/01/10 03:04:18;;;;;;;80.22;21.98;;;;;;;4.82;58.14;99899.97;5060722;28;20047;-79
2022/01/10 03:07:03;;;;;;;82.38;23.98;;;;;;;4.95;58.91;99901.88;5070952;28;20051;-80
2022/01/10 03:09:49;;;;;;;90.70;28.83;;;;;;;5.02;59.11;99900.41;5064091;28;20052;-79
2022/01/10 03:12:34;;;;;;;92.88;30.05;;;;;;;5.03;58.87;99907.38;5067535;28;20047;-79
2022/01/10 03:15:19;;;;;;;91.60;28.80;;;;;;;4.97;58.95;99903.19;5070854;28;20421;-80
2022/01/10 03:18:05;;;;;;;88.32;28.30;;;;;;;4.95;58.91;99894.59;5057794;28;20115;-79
2022/01/10 03:20:50;;;;;;;87.95;25.42;;;;;;;5.00;58.87;99901.78;5070688;28;20059;-80
2022/01/10 03:23:35;;;;;;;63.20;19.05;;;;;;;4.95;58.01;99896.50;5059669;28;20052;-79
2022/01/10 03:26:20;;;;;;;67.65;19.73;;;;;;;4.91;57.90;99901.69;5060206;28;20051;-79
2022/01/10 03:29:06;;;;;;;74.28;25.75;;;;;;;4.87;58.14;99897.19;5061641;28;20051;-80
2022/01/10 03:31:51;;;;;;;66.15;18.85;;;;;;;4.82;58.14;99902.66;5056627;28;20048;-79
2022/01/10 03:34:37;;;;;;;77.32;23.27;;;;;;;4.84;57.65;99900.47;5064680;28;20055;-79
2022/01/10 03:37:22;;;;;;;70.18;21.30;;;;;;;4.81;57.27;99898.38;5074039;28;20051;-79
2022/01/10 03:40:08;;;;;;;60.03;19.08;;;;;;;4.80;57.63;99902.16;5059521;28;20047;-80
2022/01/10 03:42:53;;;;;;;60.53;20.33;;;;;;;4.69;57.66;99907.72;5054356;28;20517;-79
2022/01/10 03:45:39;;;;;;;52.30;18.63;;;;;;;4.77;58.04;99911.66;5055895;28;20051;-80
2022/01/10 03:48:24;;;;;;;71.30;21.65;;;;;;;4.78;57.83;99897.06;5043011;28;20052;-80
2022/01/10 03:51:08;;;;;;;39.70;12.85;;;;;;;4.73;57.78;99907.91;5065969;28;20059;-80
2022/01/10 03:53:54;;;;;;;37.17;12.88;;;;;;;4.67;58.37;99898.34;5064497;28;20055;-80
2022/01/10 03:56:38;;;;;;;40.35;14.20;;;;;;;4.60;58.08;99898.72;5065893;28;20119;-80
2022/01/10 03:59:27;;;;;;;53.85;18.88;;;;;;;4.57;58.74;99906.63;5046057;28;20055;-81
2022/01/10 04:02:11;;;;;;;48.55;15.75;;;;;;;4.58;59.21;99914.38;5069988;28;20055;-80
2022/01/10 04:04:56;;;;;;;43.80;14.82;;;;;;;4.68;58.56;99910.69;5060960;28;20067;-80
2022/01/10 04:07:41;;;;;;;44.88;14.80;;;;;;;4.61;59.05;99907.63;5060512;28;20047;-80
2022/01/10 04:10:26;;;;;;;46.10;14.02;;;;;;;4.60;58.76;99909.50;5043027;28;20520;-80
2022/01/10 04:13:11;;;;;;;44.03;14.15;;;;;;;4.66;58.20;99915.59;5058086;28;20532;-80
2022/01/10 04:15:57;;;;;;;51.88;17.10;;;;;;;4.68;58.70;99916.09;5059818;28;20787;-80
2022/01/10 04:18:43;;;;;;;38.35;12.65;;;;;;;4.51;58.09;99905.91;5059803;28;20071;-80
2022/01/10 04:21:28;;;;;;;37.85;12.68;;;;;;;4.48;58.45;99911.84;5067030;28;20048;-80
2022/01/10 04:24:13;;;;;;;36.55;11.82;;;;;;;4.58;58.61;99908.19;5039859;28;20680;-79
2022/01/10 04:26:58;;;;;;;49.78;16.90;;;;;;;4.50;58.55;99914.25;5043617;28;20048;-80
2022/01/10 04:29:43;;;;;;;26.25;10.05;;;;;;;4.38;58.29;99908.53;5041372;28;20064;-81
2022/01/10 04:32:31;;;;;;;37.08;12.25;;;;;;;4.38;58.92;99912.00;5043627;28;20094;-80
2022/01/10 04:35:16;;;;;;;37.33;13.40;;;;;;;4.45;58.16;99912.44;5063454;28;20075;-79
2022/01/10 04:38:02;;;;;;;36.78;12.52;;;;;;;4.41;58.76;99910.63;5060914;28;20067;-79
2022/01/10 04:40:47;;;;;;;;;;;;;;;4.55;58.90;99914.97;5059414;28;20055;-79
2022/01/10 04:43:31;;;;;;;39.53;14.07;;;;;;;4.47;58.59;99918.31;5062234;28;19942;-78
2022/01/10 04:46:17;;;;;;;38.45;15.93;;;;;;;4.50;57.84;99920.44;5060433;28;20412;-80
2022/01/10 04:49:03;;;;;;;31.75;11.48;;;;;;;4.45;57.25;99931.28;5058003;28;20051;-79
2022/01/10 04:51:48;;;;;;;;;;;;;;;4.67;55.16;99938.75;5062356;28;20067;-80
2022/01/10 04:54:33;;;;;;;8.30;4.00;;;;;;;4.52;54.73;99944.38;5072604;28;20296;-79
2022/01/10 04:57:18;;;;;;;10.02;5.40;;;;;;;4.60;53.29;99935.63;5057901;28;20063;-79
2022/01/10 05:00:05;;;;;;;42.10;13.50;;;;;;;4.71;56.08;99935.16;5063580;28;20040;-80
2022/01/10 05:02:51;;;;;;;39.53;13.15;;;;;;;4.48;56.62;99932.56;5061917;28;20047;-79
2022/01/10 05:05:36;;;;;;;31.52;11.60;;;;;;;4.42;56.52;99926.47;5040109;28;20043;-80
2022/01/10 05:08:21;;;;;;;29.02;10.80;;;;;;;4.37;56.55;99931.94;5041664;28;20051;-80
2022/01/10 05:11:07;;;;;;;30.40;10.13;;;;;;;4.34;55.70;99926.34;5051317;28;20523;-80
2022/01/10 05:13:52;;;;;;;7.38;4.53;;;;;;;4.38;54.47;99932.75;5054817;28;20519;-79
2022/01/10 05:16:39;;;;;;;7.60;4.40;;;;;;;4.38;53.37;99927.34;5062485;28;20047;-79
2022/01/10 05:19:24;;;;;;;15.27;6.53;;;;;;;4.51;52.73;99945.47;5060870;28;20055;-80
2022/01/10 05:22:09;;;;;;;27.52;10.18;;;;;;;4.47;55.66;99941.78;5073340;28;20043;-81
2022/01/10 05:24:54;;;;;;;17.38;7.57;;;;;;;4.32;55.30;99930.13;5062736;28;20055;-79
2022/01/10 05:27:39;;;;;;;18.73;7.65;;;;;;;4.36;56.27;99935.75;5062353;28;20052;-78
2022/01/10 05:30:26;;;;;;;31.02;11.18;;;;;;;4.41;56.34;99940.25;5060032;28;20409;-79
2022/01/10 05:33:13;;;;;;;21.00;6.80;;;;;;;4.32;55.50;99942.00;5062616;28;20044;-79
2022/01/10 05:36:04;;;;;;;21.70;6.95;;;;;;;4.24;54.72;99940.75;5060800;28;20043;-78
2022/01/10 05:38:49;;;;;;;10.10;4.57;;;;;;;4.34;53.14;99947.88;5073410;28;20051;-79
2022/01/10 05:41:35;;;;;;;12.55;5.80;;;;;;;4.30;54.59;99943.09;5078615;28;20043;-79
2022/01/10 05:44:20;;;;;;;13.55;5.38;;;;;;;4.26;54.32;99941.28;5062148;28;20043;-80
2022/01/10 05:47:05;;;;;;;13.73;3.72;;;;;;;4.29;53.43;99946.06;5078307;28;20043;-80
2022/01/10 05:49:59;;;;;;;18.08;6.43;;;;;;;4.32;53.90;99951.66;5070459;28;20051;-80
2022/01/10 05:52:46;;;;;;;9.43;3.88;;;;;;;4.34;53.89;99945.19;5074743;28;20043;-80
2022/01/10 05:55:31;;;;;;;9.85;4.40;;;;;;;4.32;52.61;99945.47;5063947;28;20054;-80
2022/01/10 05:58:16;;;;;;;6.90;3.08;;;;;;;4.27;51.22;99943.66;5070711;28;20052;-81
2022/01/10 06:01:01;;;;;;;;;;;;;;;4.22;54.19;99946.44;5067634;28;20421;-80
2022/01/10 06:03:46;;;;;;;24.65;7.90;;;;;;;4.14;53.99;99951.69;5072803;28;19912;-80
2022/01/10 06:06:33;;;;;;;27.88;7.95;;;;;;;4.12;54.67;99946.56;5063028;28;20063;-79
2022/01/10 06:09:18;;;;;;;21.50;6.60;;;;;;;4.18;54.15;99950.81;5046861;28;20044;-79
2022/01/10 06:12:05;;;;;;;22.60;7.63;;;;;;;4.30;53.71;99951.16;5057275;28;20047;-79
2022/01/10 06:14:49;;;;;;;;;;;;;;;4.20;53.49;99959.41;5058886;28;20044;-80
2022/01/10 06:17:34;;;;;;;16.65;6.65;;;;;;;4.06;53.25;99955.03;5065273;28;19913;-79
2022/01/10 06:20:19;;;;;;;14.73;5.18;;;;;;;4.14;53.88;99944.41;5062347;28;20051;-78
2022/01/10 06:23:04;;;;;;;16.35;5.32;;;;;;;4.15;54.00;99943.31;5064868;28;21375;-79
2022/01/10 06:25:49;;;;;;;16.40;5.05;;;;;;;4.20;54.32;99953.22;5061683;28;20238;-78
2022/01/10 06:28:34;;;;;;;16.25;6.30;;;;;;;4.16;53.68;99958.38;5050690;28;20051;-78
2022/01/10 06:31:21;;;;;;;15.27;5.75;;;;;;;4.20;53.21;99962.09;5074591;28;20047;-78
2022/01/10 06:34:18;;;;;;;4.82;3.08;;;;;;;4.23;51.27;99968.75;5079318;28;20047;-79
2022/01/10 06:37:04;;;;;;;5.82;3.70;;;;;;;4.20;50.94;99975.53;5077500;28;20166;-78
2022/01/10 06:39:54;;;;;;;12.02;3.25;;;;;;;4.27;50.62;99999.38;5078449;28;20069;-78
2022/01/10 06:42:40;;;;;;;;;;;;;;;4.29;50.42;100006.06;5048625;28;20051;-78
2022/01/10 06:45:25;;;;;;;;;;;;;;;4.35;50.70;100012.19;5037201;28;20370;-77
2022/01/10 06:48:10;;;;;;;14.48;5.28;;;;;;;4.50;52.55;100011.97;5037425;28;19913;-77
2022/01/10 06:50:57;;;;;;;10.52;4.47;;;;;;;4.52;50.98;100036.69;5039312;28;20044;-76
2022/01/10 06:53:42;;;;;;;6.15;3.22;;;;;;;4.12;51.82;100031.88;5051235;28;20055;-76
2022/01/10 06:56:27;;;;;;;11.70;3.78;;;;;;;4.29;52.39;100041.06;5041063;28;20048;-76
2022/01/10 06:59:12;;;;;;;10.25;4.07;;;;;;;4.39;52.07;100037.44;5039464;28;20052;-76
2022/01/10 07:02:02;;;;;;;12.32;4.97;;;;;;;4.42;51.69;100044.13;5051283;28;20040;-76
2022/01/10 07:04:47;;;;;;;10.70;5.38;;;;;;;4.25;53.03;100053.50;5044465;28;20063;-76
2022/01/10 07:07:32;;;;;;;17.70;6.35;;;;;;;4.24;54.44;100059.16;5043190;28;20064;-77
2022/01/10 07:10:26;;;;;;;19.40;8.05;;;;;;;4.37;55.27;100071.13;5040922;28;20052;-77
2022/01/10 07:13:10;;;;;;;12.88;6.13;;;;;;;4.07;55.24;100072.28;5058687;28;20059;-77
2022/01/10 07:15:56;;;;;;;20.58;8.70;;;;;;;4.09;52.87;100086.25;5057046;28;20601;-76
2022/01/10 07:18:41;;;;;;;20.88;6.22;;;;;;;4.32;52.43;100087.34;5053451;28;20060;-76
2022/01/10 07:21:39;;;;;;;15.57;7.18;;;;;;;4.29;51.69;100089.50;5044188;28;20048;-77
2022/01/10 07:24:26;;;;;;;19.15;8.00;;;;;;;4.20;53.62;100096.63;5042051;28;20043;-77
2022/01/10 07:27:10;;;;;;;20.05;10.23;;;;;;;4.44;55.69;100098.47;5055936;28;20072;-77
2022/01/10 07:29:55;;;;;;;12.63;6.07;;;;;;;4.24;54.82;100105.72;5059727;28;20040;-77
2022/01/10 07:32:40;;;;;;;13.63;5.95;;;;;;;4.05;56.07;100109.44;5076304;28;20286;-77
2022/01/10 07:35:25;;;;;;;17.83;5.82;;;;;;;4.05;55.42;100115.63;5074707;28;20047;-77
2022/01/10 07:38:10;;;;;;;12.30;5.45;;;;;;;4.03;54.37;100114.31;5074964;28;20051;-77
2022/01/10 07:40:54;;;;;;;15.68;6.07;;;;;;;4.20;55.91;100123.53;5068472;28;20040;-77
2022/01/10 07:43:40;;;;;;;15.50;6.90;;;;;;;4.16;55.90;100130.56;5068958;28;20401;-77
2022/01/10 07:46:27;;;;;;;15.25;6.90;;;;;;;3.99;55.15;100134.78;5064902;28;20408;-77
2022/01/10 07:49:12;;;;;;;13.95;6.80;;;;;;;3.79;55.02;100136.63;5077843;28;20051;-77
2022/01/10 07:51:57;;;;;;;22.38;5.75;;;;;;;3.69;55.89;100138.59;5076112;28;20071;-77
2022/01/10 07:54:44;;;;;;;19.92;7.10;;;;;;;3.75;55.51;100148.22;5074011;28;20067;-76
2022/01/10 07:57:29;;;;;;;19.48;7.97;;;;;;;3.67;55.95;100167.66;5068575;28;20040;-76
2022/01/10 08:00:14;;;;;;;27.08;6.93;;;;;;;3.72;55.68;100154.16;5064858;28;20052;-76
2022/01/10 08:02:59;;;;;;;27.15;8.07;;;;;;;3.70;56.38;100162.53;5070323;28;20071;-76
2022/01/10 08:05:43;;;;;;;41.47;12.93;;;;;;;3.70;56.00;100173.28;5076156;28;20051;-76
2022/01/10 08:08:28;;;;;;;17.10;6.10;;;;;;;3.57;56.00;100163.16;5067920;28;20534;-76
2022/01/10 08:11:14;;;;;;;13.75;5.35;;;;;;;3.68;56.57;100177.31;5070038;28;20047;-76
2022/01/10 08:13:58;;;;;;;16.23;4.50;;;;;;;3.86;56.00;100173.91;5076333;28;20051;-76
2022/01/10 08:16:43;;;;;;;22.42;5.85;;;;;;;3.80;55.89;100181.25;5072797;28;20051;-76
2022/01/10 08:19:30;;;;;;;16.38;5.65;;;;;;;3.83;56.65;100179.88;5071551;28;20412;-76
2022/01/10 08:22:15;;;;;;;24.58;8.93;;;;;;;3.99;55.38;100180.53;5075935;28;20401;-76
2022/01/10 08:25:00;;;;;;;29.63;7.88;;;;;;;4.10;54.59;100179.34;5072196;28;20052;-76
2022/01/10 08:27:45;;;;;;;21.98;6.82;;;;;;;4.19;54.89;100186.50;5065471;28;20306;-76
2022/01/10 08:30:30;;;;;;;16.27;6.78;;;;;;;4.25;54.06;100184.56;5075408;28;20059;-76
2022/01/10 08:33:14;;;;;;;25.50;7.55;;;;;;;4.29;54.00;100189.06;5074700;28;20053;-77
2022/01/10 08:35:59;;;;;;;21.00;5.57;;;;;;;4.43;53.47;100194.56;5073136;28;20063;-77
2022/01/10 08:38:44;;;;;;;14.82;6.68;;;;;;;4.48;53.94;100199.88;5071261;28;20421;-80
2022/01/10 08:41:29;;;;;;;23.88;5.78;;;;;;;4.71;53.45;100195.56;5074128;28;20039;-78
2022/01/10 08:44:15;;;;;;;26.05;7.45;;;;;;;4.47;55.17;100200.19;5081342;28;20969;-78
2022/01/10 08:47:00;;;;;;;26.17;8.60;;;;;;;4.66;55.24;100211.78;5077655;28;20417;-78
2022/01/10 08:49:45;;;;;;;21.48;8.45;;;;;;;4.87;55.01;100210.44;5069446;28;20051;-78
2022/01/10 08:52:30;;;;;;;19.70;7.77;;;;;;;4.60;56.06;100215.63;5063985;28;20044;-78
2022/01/10 08:55:15;;;;;;;19.10;7.57;;;;;;;4.86;54.31;100225.00;5076480;28;20297;-78
2022/01/10 08:58:01;;;;;;;25.90;10.25;;;;;;;5.46;53.32;100225.22;5077924;28;20055;-78
2022/01/10 09:00:47;;;;;;;28.42;12.25;;;;;;;5.80;51.65;100228.44;5081687;28;20520;-78
2022/01/10 09:03:32;;;;;;;28.63;11.15;;;;;;;6.10;50.85;100219.06;5085254;28;20044;-78
2022/01/10 09:06:17;;;;;;;27.10;13.70;;;;;;;6.19;49.56;100230.00;5085476;28;20044;-77
2022/01/10 09:09:06;;;;;;;23.42;10.13;;;;;;;6.27;49.57;100232.78;5074792;28;20044;-80
2022/01/10 09:11:51;;;;;;;46.13;13.73;;;;;;;6.22;50.02;100240.97;5074572;28;20056;-78
2022/01/10 09:14:36;;;;;;;35.05;18.42;;;;;;;6.19;49.88;100241.59;5067747;28;20416;-77
2022/01/10 09:17:21;;;;;;;12.88;7.15;;;;;;;6.16;49.91;100257.56;5075412;28;20036;-80
2022/01/10 09:20:06;;;;;;;10.23;4.93;;;;;;;6.27;48.87;100253.59;5079806;28;20051;-79
2022/01/10 09:22:51;;;;;;;15.85;7.22;;;;;;;5.69;49.71;100253.97;5081758;28;20048;-79
2022/01/10 09:25:36;;;;;;;15.90;5.82;;;;;;;5.44;50.58;100254.38;5078688;28;20047;-79
2022/01/10 09:28:21;;;;;;;8.77;4.78;;;;;;;5.47;50.58;100253.81;5067619;28;20060;-79
2022/01/10 09:31:06;;;;;;;10.68;4.97;;;;;;;5.50;50.51;100259.41;5081832;28;20067;-79
2022/01/10 09:33:54;;;;;;;12.73;4.18;;;;;;;5.58;50.00;100263.34;5077957;28;20055;-76
2022/01/10 09:36:39;;;;;;;22.42;9.05;;;;;;;5.43;51.19;100263.56;5065562;28;20044;-76
2022/01/10 09:39:24;;;;;;;15.88;6.65;;;;;;;5.38;51.65;100266.34;5067870;28;20063;-76
2022/01/10 09:42:12;;;;;;;8.75;4.40;;;;;;;5.31;50.97;100268.59;5073306;28;20043;-76
2022/01/10 09:44:57;;;;;;;20.27;6.68;;;;;;;5.12;52.40;100266.69;5068285;28;20521;-76
2022/01/10 09:47:42;;;;;;;14.95;4.80;;;;;;;5.33;51.98;100271.81;5069562;28;20110;-77
2022/01/10 09:50:27;;;;;;;11.05;6.38;;;;;;;5.35;52.89;100269.59;5070224;28;20046;-76
2022/01/10 09:53:15;;;;;;;11.90;4.38;;;;;;;5.56;53.54;100273.63;5078967;28;20434;-76
2022/01/10 09:55:59;;;;;;;12.48;6.57;;;;;;;5.62;53.07;100269.75;5075870;28;20527;-76
2022/01/10 09:58:44;;;;;;;13.77;6.07;;;;;;;5.46;53.98;100276.47;5071819;28;20421;-76
2022/01/10 10:01:30;;;;;;;14.77;6.80;;;;;;;5.54;54.01;100271.19;5071743;28;20047;-77
2022/01/10 10:04:15;;;;;;;17.25;7.63;;;;;;;5.48;54.30;100268.91;5076392;28;20055;-77
2022/01/10 10:07:01;;;;;;;8.88;6.13;;;;;;;5.61;53.43;100268.16;5073079;28;20051;-77
2022/01/10 10:09:46;;;;;;;18.33;6.75;;;;;;;5.63;53.47;100268.66;5073047;28;20043;-76
2022/01/10 10:12:31;;;;;;;8.73;4.72;;;;;;;5.60;52.33;100269.22;5070525;28;20051;-76
2022/01/10 10:15:19;;;;;;;22.53;5.93;;;;;;;5.76;53.16;100272.50;5073388;28;20051;-77
2022/01/10 10:18:08;;;;;;;32.90;11.15;;;;;;;6.02;53.96;100268.31;5076765;28;20277;-78
2022/01/10 10:20:53;;;;;;;34.28;12.65;;;;;;;6.19;55.61;100265.88;5082564;28;20048;-78
2022/01/10 10:23:40;;;;;;;25.13;13.43;;;;;;;6.45;53.73;100263.50;5073560;28;20056;-78
2022/01/10 10:26:26;;;;;;;29.02;12.95;;;;;;;6.41;54.00;100265.19;5072349;28;20036;-78
2022/01/10 10:29:13;;;;;;;35.90;13.80;;;;;;;6.58;54.26;100270.03;5077905;28;20048;-77
2022/01/10 10:32:02;;;;;;;24.88;13.27;;;;;;;6.81;52.38;100269.81;5084141;28;20071;-78
2022/01/10 10:34:46;;;;;;;26.63;12.43;;;;;;;6.94;52.51;100272.81;5084549;28;20044;-78
2022/01/10 10:37:36;;;;;;;24.63;10.52;;;;;;;6.94;52.47;100270.13;5079397;28;20052;-78
2022/01/10 10:40:21;;;;;;;23.42;10.98;;;;;;;7.32;51.72;100269.53;5083469;28;20043;-78
2022/01/10 10:43:06;;;;;;;18.70;10.27;;;;;;;7.83;50.57;100278.41;5075823;28;20120;-78
2022/01/10 10:45:51;;;;;;;15.57;7.82;;;;;;;8.04;50.39;100279.50;5076479;28;20041;-78
2022/01/10 10:48:37;;;;;;;11.80;5.60;;;;;;;8.32;49.50;100280.19;5075295;28;20071;-78
2022/01/10 10:51:26;;;;;;;16.10;7.50;;;;;;;8.69;47.61;100274.28;5073531;28;20849;-78
2022/01/10 10:54:11;;;;;;;16.67;6.25;;;;;;;8.85;46.90;100274.66;5071318;28;20051;-77
2022/01/10 10:56:56;;;;;;;19.73;6.85;;;;;;;9.05;46.44;100276.78;5073893;28;20043;-77
2022/01/10 10:59:43;;;;;;;12.40;6.80;;;;;;;9.31;45.25;100276.84;5075225;28;20055;-78
2022/01/10 11:02:29;;;;;;;11.88;6.18;;;;;;;9.31;45.64;100283.06;5078486;28;20655;-78
2022/01/10 11:05:14;;;;;;;12.13;6.70;;;;;;;9.69;43.85;100275.13;5076943;28;20059;-77
2022/01/10 11:07:59;;;;;;;13.07;4.97;;;;;;;9.73;44.08;100276.09;5071995;28;20055;-77
2022/01/10 11:10:44;;;;;;;16.02;5.07;;;;;;;9.58;44.05;100279.28;5076447;28;20051;-77
2022/01/10 11:13:30;;;;;;;11.57;5.95;;;;;;;9.69;42.67;100285.19;5073339;28;20048;-78
2022/01/10 11:16:16;;;;;;;13.35;6.70;;;;;;;10.13;42.37;100284.03;5072555;28;20110;-77
2022/01/10 11:19:01;;;;;;;14.48;7.70;;;;;;;10.13;43.20;100284.81;5076061;28;20049;-78
2022/01/10 11:21:53;;;;;;;14.93;6.72;;;;;;;10.32;43.30;100283.69;5073994;28;20037;-78
2022/01/10 11:24:48;;;;;;;15.57;8.35;;;;;;;10.00;47.28;100282.28;5072916;28;20048;-78
2022/01/10 11:27:37;;;;;;;14.30;6.72;;;;;;;10.09;48.43;100289.31;5069690;28;20051;-78
2022/01/10 11:30:24;;;;;;;17.75;8.50;;;;;;;10.15;48.32;100293.47;5082073;28;20044;-77
2022/01/10 11:33:16;;;;;;;20.40;9.57;;;;;;;9.87;48.10;100292.19;5070856;28;20051;-77
2022/01/10 11:36:08;;;;;;;23.30;9.55;;;;;;;9.67;49.89;100290.94;5072503;28;20055;-77
2022/01/10 11:38:58;;;;;;;18.80;9.82;;;;;;;9.59;50.01;100296.38;5071884;28;20119;-77
2022/01/10 11:41:43;;;;;;;17.73;10.40;;;;;;;9.56;50.46;100297.78;5075199;28;20043;-77
2022/01/10 11:44:27;;;;;;;21.70;9.73;;;;;;;9.20;51.45;100305.38;5072137;28;20044;-77
2022/01/10 11:47:14;;;;;;;19.05;10.32;;;;;;;8.97;53.72;100310.94;5073735;28;20047;-77
2022/01/10 11:50:25;;;;;;;21.35;12.18;;;;;;;9.00;53.24;100318.41;5076797;28;20048;-77
2022/01/10 11:53:10;;;;;;;21.20;11.52;;;;;;;8.58;53.22;100311.72;5075858;28;20045;-77
2022/01/10 11:55:55;;;;;;;24.02;12.52;;;;;;;8.29;54.28;100322.19;5074632;28;20040;-77
2022/01/10 11:58:40;;;;;;;22.15;12.10;;;;;;;7.81;55.26;100318.53;5074301;28;20497;-76
2022/01/10 12:01:32;;;;;;;20.60;12.27;;;;;;;7.41;57.21;100314.81;5076901;28;20040;-76
2022/01/10 12:04:19;;;;;;;24.77;15.98;;;;;;;7.91;55.59;100329.09;5073023;28;20041;-76
2022/01/10 12:07:06;;;;;;;33.53;16.83;;;;;;;7.71;54.78;100327.69;5084115;28;20051;-75
2022/01/10 12:09:53;;;;;;;26.17;15.65;;;;;;;7.74;55.28;100330.56;5075817;28;20052;-76
2022/01/10 12:12:40;;;;;;;29.35;17.83;;;;;;;7.58;55.92;100321.19;5078906;28;20416;-76
2022/01/10 12:15:30;;;;;;;34.78;17.75;;;;;;;7.53;55.26;100318.59;5067571;28;20040;-76
2022/01/10 12:18:15;;;;;;;28.58;16.48;;;;;;;7.61;53.90;100336.03;5072680;28;20048;-76
2022/01/10 12:21:00;;;;;;;21.48;12.50;;;;;;;7.71;54.13;100341.22;5073421;28;20036;-76
2022/01/10 12:23:45;;;;;;;25.23;14.20;;;;;;;8.01;52.24;100345.91;5071528;28;20525;-76
2022/01/10 12:26:30;;;;;;;21.95;14.90;;;;;;;8.10;50.86;100335.94;5066201;28;20529;-76
2022/01/10 12:29:16;;;;;;;19.37;12.90;;;;;;;8.05;51.73;100346.09;5073755;28;20048;-79
2022/01/10 12:32:04;;;;;;;27.77;15.90;;;;;;;8.43;51.76;100358.16;5079150;28;20051;-76
2022/01/10 12:34:49;;;;;;;25.98;15.90;;;;;;;8.04;51.77;100352.59;5074066;28;20045;-76
2022/01/10 12:37:34;;;;;;;20.40;12.88;;;;;;;8.51;50.91;100360.16;5065648;28;20041;-76
2022/01/10 12:40:19;;;;;;;21.45;12.75;;;;;;;8.73;50.38;100363.94;5076623;28;20047;-76
2022/01/10 12:43:04;;;;;;;17.88;11.32;;;;;;;8.72;50.54;100373.19;5079018;28;20035;-75
2022/01/10 12:45:49;;;;;;;17.25;10.88;;;;;;;9.04;49.69;100372.81;5064167;28;20066;-76
2022/01/10 12:48:34;;;;;;;25.88;11.68;;;;;;;8.96;50.10;100382.53;5072050;28;20609;-76
2022/01/10 12:51:20;;;;;;;16.42;11.18;;;;;;;9.11;49.33;100377.81;5070068;28;20535;-76
2022/01/10 12:54:10;;;;;;;23.42;15.38;;;;;;;8.92;49.76;100378.06;5081520;28;20043;-75
2022/01/10 12:56:57;;;;;;;26.20;16.23;;;;;;;8.69;50.41;100376.50;5081736;28;20036;-76
2022/01/10 12:59:42;;;;;;;21.20;13.88;;;;;;;9.17;49.47;100388.22;5076821;28;20041;-77
2022/01/10 13:02:27;;;;;;;22.10;11.93;;;;;;;9.32;49.42;100387.78;5082543;28;20033;-77